Time;durP1;ratioP1;P1;durP2;ratioP2;P2;SDS_P1;SDS_P2;PMS_P1;PMS_P2;Temp;Humidity;BMP_temperature;BMP_pressure;BME280_temperature;BME280_humidity;BME280_pressure;Samples;Min_cycle;Max_cycle;Signal;HPM_P1;HPM_P2
2022/01/25 00:09:06;;;;;;;0.68;0.68;;;;;;;-0.09;84.26;98351.94;29371;250;64008;-70
2022/01/25 00:10:01;;;;;;;0.60;0.60;;;;;;;-0.10;84.38;98350.28;29373;222;63023;-70
2022/01/25 00:15:03;;;;;;;0.70;0.70;;;;;;;-0.11;84.60;98359.31;29395;263;63005;-70
2022/01/25 00:24:22;;;;;;;0.62;0.62;;;;;;;-0.06;84.62;98364.91;29371;216;64009;-68
2022/01/25 00:26:41;;;;;;;0.60;0.60;;;;;;;-0.05;84.65;98361.22;29395;218;63009;-69
2022/01/25 00:28:28;;;;;;;0.60;0.60;;;;;;;-0.08;84.13;98364.25;29373;202;63014;-69
2022/01/25 00:29:15;;;;;;;0.60;0.60;;;;;;;-0.09;84.45;98357.28;29371;282;64009;-57
2022/01/25 00:30:00;;;;;;;0.70;0.70;;;;;;;-0.10;84.32;98354.78;29371;249;64013;-68
2022/01/25 00:30:44;;;;;;;0.60;0.60;;;;;;;-0.10;84.62;98350.28;29373;286;63004;-68
2022/01/25 00:31:17;;;;;;;0.70;0.70;;;;;;;-0.13;84.34;98353.31;29371;210;64014;-68
2022/01/25 00:31:48;;;;;;;0.70;0.70;;;;;;;-0.13;84.62;98349.84;29373;217;63005;-67
2022/01/25 00:32:20;;;;;;;0.70;0.70;;;;;;;-0.13;84.84;98350.66;29373;222;63009;-69
2022/01/25 00:32:52;;;;;;;0.70;0.70;;;;;;;-0.11;84.59;98359.31;29373;248;63005;-69
2022/01/25 00:33:23;;;;;;;5.20;4.90;;;;;;;-0.10;84.86;98355.63;29373;228;63009;-69
2022/01/25 00:33:55;;;;;;;0.60;0.60;;;;;;;-0.10;84.84;98346.78;29371;209;64009;-69
2022/01/25 00:34:26;;;;;;;0.62;0.62;;;;;;;-0.11;84.47;98353.97;29371;264;64013;-69
2022/01/25 00:34:57;;;;;;;0.60;0.60;;;;;;;-0.11;84.54;98351.31;29373;236;63004;-68
2022/01/25 00:35:29;;;;;;;0.70;0.70;;;;;;;-0.11;84.70;98348.63;29373;233;63009;-68
2022/01/25 00:36:03;;;;;;;0.70;0.70;;;;;;;-0.09;84.82;98354.59;29373;255;63004;-68
2022/01/25 00:36:35;;;;;;;0.70;0.70;;;;;;;-0.08;84.80;98353.59;29371;222;64013;-57
2022/01/25 00:37:06;;;;;;;15.82;14.65;;;;;;;-0.08;84.68;98348.25;29363;248;65004;-58
2022/01/25 00:37:39;;;;;;;0.70;0.70;;;;;;;-0.06;84.35;98350.75;29373;270;63008;-68
2022/01/25 00:38:10;;;;;;;0.70;0.70;;;;;;;-0.07;84.52;98344.56;29373;223;63005;-69
2022/01/25 00:38:43;;;;;;;0.60;0.60;;;;;;;-0.07;84.42;98349.91;29373;259;63009;-69
2022/01/25 00:39:14;;;;;;;0.70;0.70;;;;;;;-0.08;84.55;98342.09;29373;221;63005;-69
2022/01/25 00:39:45;;;;;;;0.70;0.70;;;;;;;-0.09;84.48;98346.59;29373;197;63009;-69
2022/01/25 00:40:17;;;;;;;0.60;0.60;;;;;;;-0.09;84.60;98349.28;29373;206;63005;-68
2022/01/25 00:40:49;;;;;;;0.70;0.70;;;;;;;-0.09;84.63;98340.44;29373;265;63009;-59
2022/01/25 00:41:22;;;;;;;0.60;0.60;;;;;;;-0.09;84.56;98346.59;29373;249;63005;-69
2022/01/25 00:41:54;;;;;;;0.70;0.70;;;;;;;-0.09;84.68;98349.28;29372;226;64013;-71
2022/01/25 00:42:25;;;;;;;0.60;0.60;;;;;;;-0.08;84.59;98348.25;29373;244;63004;-70
2022/01/25 00:42:56;;;;;;;0.70;0.70;;;;;;;-0.07;84.74;98349.09;29373;224;63004;-68
2022/01/25 00:43:28;;;;;;;0.70;0.70;;;;;;;-0.07;84.77;98344.56;29373;218;63007;-70
2022/01/25 00:44:01;;;;;;;0.70;0.70;;;;;;;-0.06;84.52;98348.06;29371;212;64013;-67
2022/01/25 00:44:37;;;;;;;0.60;0.60;;;;;;;-0.05;84.57;98350.53;29373;221;63004;-69
2022/01/25 00:45:11;;;;;;;0.70;0.70;;;;;;;-0.03;84.36;98348.50;29373;208;63023;-70
2022/01/25 00:45:42;;;;;;;0.70;0.70;;;;;;;-0.01;84.10;98348.31;29373;237;63004;-58
2022/01/25 00:46:14;;;;;;;0.65;0.65;;;;;;;0.00;84.28;98348.09;29373;219;63009;-69
2022/01/25 00:46:47;;;;;;;0.70;0.70;;;;;;;-0.01;84.43;98349.16;29371;221;64009;-68
2022/01/25 00:47:20;;;;;;;0.60;0.60;;;;;;;0.00;84.42;98350.78;29373;259;63009;-67
2022/01/25 00:47:52;;;;;;;0.60;0.60;;;;;;;0.03;84.02;98348.75;29373;206;63005;-69
2022/01/25 00:48:45;;;;;;;0.60;0.60;;;;;;;0.02;84.00;98347.09;29373;252;63009;-69
2022/01/25 00:49:27;;;;;;;0.70;0.70;;;;;;;0.04;84.27;98347.72;29373;216;63005;-58
2022/01/25 00:49:58;;;;;;;0.70;0.70;;;;;;;0.05;83.89;98347.53;29371;198;64013;-69
2022/01/25 00:50:37;;;;;;;0.62;0.62;;;;;;;0.06;83.86;98343.03;29373;247;63004;-70
2022/01/25 00:54:08;;;;;;;0.60;0.60;;;;;;;0.12;83.55;98347.63;29393;214;64009;-69
2022/01/25 00:54:43;;;;;;;0.70;0.70;;;;;;;0.12;83.28;98347.63;29395;220;63009;-70
2022/01/25 00:55:15;;;;;;;0.60;0.60;;;;;;;0.11;83.28;98341.44;29371;214;64009;-69
2022/01/25 00:55:46;;;;;;;0.60;0.60;;;;;;;0.11;83.45;98341.44;29372;259;64009;-68
2022/01/25 00:56:18;;;;;;;0.70;0.70;;;;;;;0.11;83.33;98346.78;29373;216;63005;-67
2022/01/25 00:56:53;;;;;;;0.60;0.60;;;;;;;0.13;83.45;98350.09;29373;199;63009;-69
2022/01/25 00:57:25;;;;;;;0.60;0.60;;;;;;;0.14;83.47;98348.25;29373;266;63005;-69
2022/01/25 00:57:56;;;;;;;0.70;0.70;;;;;;;0.13;83.13;98344.75;29373;202;63021;-68
2022/01/25 00:58:27;;;;;;;0.70;0.70;;;;;;;0.13;83.33;98338.59;29373;196;63004;-69
2022/01/25 00:59:01;;;;;;;0.60;0.60;;;;;;;0.13;83.25;98349.25;29373;238;63009;-69
2022/01/25 00:59:32;;;;;;;0.70;0.70;;;;;;;0.13;83.19;98343.94;29373;209;63004;-67
2022/01/25 01:00:07;;;;;;;0.60;0.60;;;;;;;0.12;83.24;98347.63;29371;212;64013;-67
2022/01/25 01:00:39;;;;;;;0.68;0.68;;;;;;;0.09;83.21;98342.66;29373;230;63004;-68
2022/01/25 01:01:10;;;;;;;0.60;0.60;;;;;;;0.09;83.43;98345.31;29373;283;63009;-69
2022/01/25 01:01:43;;;;;;;0.70;0.70;;;;;;;0.07;83.32;98344.69;29373;258;63005;-67
2022/01/25 01:02:15;;;;;;;0.65;0.65;;;;;;;0.07;83.69;98352.69;29373;221;63009;-68
2022/01/25 01:02:46;;;;;;;0.60;0.60;;;;;;;0.05;83.35;98346.72;29373;252;63005;-60
2022/01/25 01:03:18;;;;;;;0.70;0.70;;;;;;;0.05;83.73;98352.88;29373;248;63009;-67
2022/01/25 01:03:49;;;;;;;0.60;0.60;;;;;;;0.04;83.78;98343.22;29371;202;64009;-69
2022/01/25 01:04:22;;;;;;;0.62;0.62;;;;;;;0.02;83.74;98341.75;29373;205;63009;-70
2022/01/25 01:04:53;;;;;;;0.70;0.70;;;;;;;0.00;83.68;98356.13;29373;281;63005;-68
2022/01/25 01:05:25;;;;;;;0.70;0.70;;;;;;;-0.03;83.77;98343.19;29373;218;63009;-68
2022/01/25 01:05:57;;;;;;;0.70;0.70;;;;;;;-0.05;83.97;98347.06;29373;215;63004;-57
2022/01/25 01:06:29;;;;;;;0.60;0.60;;;;;;;-0.07;84.15;98352.56;29371;205;64013;-70
2022/01/25 01:07:02;;;;;;;0.60;0.60;;;;;;;-0.09;84.02;98357.28;29373;237;63004;-67
2022/01/25 01:07:33;;;;;;;0.60;0.60;;;;;;;-0.10;84.17;98354.78;29373;258;63008;-68
2022/01/25 01:08:05;;;;;;;0.60;0.60;;;;;;;-0.10;84.26;98352.94;29373;235;63004;-68
2022/01/25 01:08:40;;;;;;;0.60;0.60;;;;;;;-0.10;84.02;98354.78;29373;239;63009;-70
2022/01/25 01:09:13;;;;;;;0.60;0.60;;;;;;;-0.13;84.17;98360.50;29373;204;63005;-69
2022/01/25 01:09:48;;;;;;;0.70;0.70;;;;;;;-0.14;84.10;98358.84;29373;207;63009;-69
2022/01/25 01:10:23;;;;;;;0.70;0.70;;;;;;;-0.19;84.47;98359.41;29371;233;64009;-68
2022/01/25 01:10:54;;;;;;;0.70;0.70;;;;;;;-0.20;84.62;98356.94;29373;218;63025;-68
2022/01/25 01:11:37;;;;;;;0.60;0.60;;;;;;;-0.20;84.51;98355.09;29373;230;63005;-68
2022/01/25 01:12:17;;;;;;;0.60;0.60;;;;;;;-0.20;84.72;98360.44;29373;211;63009;-58
2022/01/25 01:15:51;;;;;;;0.70;0.70;;;;;;;-0.28;84.73;98363.19;29371;211;64013;-68
2022/01/25 01:30:08;;;;;;;0.68;0.68;;;;;;;-0.27;84.99;98374.69;29373;220;63004;-68
2022/01/25 01:31:01;;;;;;;0.70;0.70;;;;;;;-0.27;84.57;98372.84;29373;221;63009;-67
2022/01/25 01:33:50;;;;;;;0.70;0.70;;;;;;;-0.28;84.83;98371.22;29395;216;63005;-68
2022/01/25 01:36:38;;;;;;;0.70;0.70;;;;;;;-0.29;84.78;98366.06;29373;270;63009;-68
2022/01/25 01:37:37;;;;;;;0.70;0.70;;;;;;;-0.30;84.74;98365.22;29371;252;64008;-70
2022/01/25 01:39:32;;;;;;;0.70;0.70;;;;;;;-0.34;84.74;98358.62;29373;283;63005;-58
2022/01/25 01:41:25;;;;;;;0.70;0.70;;;;;;;-0.39;85.18;98353.03;29373;237;63005;-69
2022/01/25 01:42:34;;;;;;;0.60;0.60;;;;;;;-0.41;85.10;98357.75;29371;213;64013;-67
2022/01/25 01:43:01;;;;;;;0.70;0.70;;;;;;;-0.42;85.28;98356.09;29371;197;64009;-68
2022/01/25 01:43:35;;;;;;;0.60;0.60;;;;;;;-0.40;85.45;98359.41;29373;203;63009;-67
2022/01/25 01:44:10;;;;;;;0.70;0.70;;;;;;;-0.40;85.46;98357.56;29371;219;64009;-68
2022/01/25 01:45:55;;;;;;;0.70;0.70;;;;;;;-0.41;84.99;98344.41;29373;206;63005;-68
2022/01/25 01:46:40;;;;;;;0.70;0.70;;;;;;;-0.41;85.17;98344.41;29373;197;63009;-68
2022/01/25 01:47:22;;;;;;;0.70;0.70;;;;;;;-0.40;85.21;98346.06;29373;215;63005;-69
2022/01/25 01:48:00;;;;;;;0.62;0.62;;;;;;;-0.40;84.96;98343.38;29371;218;64013;-67
2022/01/25 01:48:40;;;;;;;0.68;0.68;;;;;;;-0.40;84.95;98343.38;29373;273;63005;-70
2022/01/25 01:49:11;;;;;;;0.70;0.70;;;;;;;-0.41;85.12;98347.06;29373;213;63009;-69
2022/01/25 01:49:44;;;;;;;0.70;0.70;;;;;;;-0.41;84.92;98344.41;29373;230;63004;-67
2022/01/25 01:50:28;;;;;;;0.70;0.70;;;;;;;-0.41;85.16;98341.75;29373;218;63009;-66
2022/01/25 01:51:08;;;;;;;0.70;0.70;;;;;;;-0.40;85.10;98349.56;29373;206;63016;-67
2022/01/25 01:51:43;;;;;;;0.70;0.70;;;;;;;-0.42;85.18;98348.09;29373;303;63009;-68
2022/01/25 01:52:14;;;;;;;0.70;0.70;;;;;;;-0.43;85.24;98346.44;29373;234;63004;-69
2022/01/25 01:52:45;;;;;;;0.70;0.70;;;;;;;-0.45;85.06;98345.78;29373;222;63008;-66
2022/01/25 01:53:20;;;;;;;0.65;0.65;;;;;;;-0.47;85.26;98347.81;29371;206;64009;-69
2022/01/25 01:53:52;;;;;;;2.17;2.12;;;;;;;-0.46;85.22;98349.47;29373;218;63009;-67
2022/01/25 01:54:23;;;;;;;0.60;0.60;;;;;;;-0.46;85.43;98349.47;29373;265;63005;-67
2022/01/25 01:54:54;;;;;;;0.70;0.70;;;;;;;-0.47;85.38;98359.31;29373;214;63009;-67
2022/01/25 01:55:27;;;;;;;0.70;0.70;;;;;;;-0.47;85.23;98355.81;29373;237;63005;-68
2022/01/25 01:55:59;;;;;;;0.68;0.68;;;;;;;-0.48;85.39;98357.66;29373;255;63009;-68
2022/01/25 01:56:31;;;;;;;0.70;0.70;;;;;;;-0.48;85.26;98351.50;29373;214;63005;-68
2022/01/25 01:57:03;;;;;;;0.60;0.60;;;;;;;-0.47;85.35;98358.47;29373;232;63009;-68
2022/01/25 01:57:36;;;;;;;0.70;0.70;;;;;;;-0.48;85.31;98357.66;29373;231;63004;-68
2022/01/25 01:58:08;;;;;;;0.70;0.70;;;;;;;-0.48;85.64;98359.50;29373;253;63019;-69
2022/01/25 01:58:40;;;;;;;0.62;0.62;;;;;;;-0.47;85.40;98359.31;29371;203;64009;-70
2022/01/25 01:59:15;;;;;;;0.70;0.70;;;;;;;-0.46;85.33;98360.13;29372;217;63009;-68
2022/01/25 01:59:46;;;;;;;0.70;0.70;;;;;;;-0.47;85.50;98359.31;29371;252;64008;-66
2022/01/25 02:00:21;;;;;;;0.70;0.70;;;;;;;-0.47;85.53;98355.81;29373;249;63008;-68
2022/01/25 02:00:53;;;;;;;0.60;0.60;;;;;;;-0.50;85.39;98358.84;29373;255;63005;-68
2022/01/25 02:01:26;;;;;;;0.60;0.60;;;;;;;-0.50;85.55;98356.19;29373;204;63009;-68
2022/01/25 02:01:58;;;;;;;0.70;0.70;;;;;;;-0.51;85.42;98362.53;29373;214;63005;-69
2022/01/25 02:02:29;;;;;;;0.60;0.60;;;;;;;-0.50;85.42;98353.53;29373;281;63026;-70
2022/01/25 02:03:03;;;;;;;0.70;0.70;;;;;;;-0.53;85.71;98353.88;29371;212;64009;-68
2022/01/25 02:03:35;;;;;;;0.60;0.60;;;;;;;-0.53;85.47;98356.56;29373;241;63009;-67
2022/01/25 02:04:10;;;;;;;0.70;0.70;;;;;;;-0.54;85.69;98347.72;29373;230;63005;-67
2022/01/25 02:04:41;;;;;;;0.65;0.65;;;;;;;-0.53;85.78;98348.56;29373;221;63009;-67
2022/01/25 02:05:15;;;;;;;0.70;0.70;;;;;;;-0.53;85.69;98351.22;29373;197;63004;-68
2022/01/25 02:05:46;;;;;;;0.70;0.70;;;;;;;-0.53;85.64;98348.56;29373;196;63009;-67
2022/01/25 02:06:18;;;;;;;0.70;0.70;;;;;;;-0.52;85.61;98345.72;29373;209;63004;-68
2022/01/25 02:06:49;;;;;;;0.60;0.60;;;;;;;-0.53;85.86;98341.38;29373;231;63009;-68
2022/01/25 02:07:20;;;;;;;0.70;0.70;;;;;;;-0.54;85.68;98346.91;29373;236;63004;-68
2022/01/25 02:07:51;;;;;;;0.70;0.70;;;;;;;-0.57;85.53;98342.78;29373;246;63008;-69
2022/01/25 02:08:23;;;;;;;1.45;1.45;;;;;;;-0.59;85.82;98338.63;29371;245;64009;-68
2022/01/25 02:08:54;;;;;;;0.62;0.62;;;;;;;-0.59;85.78;98346.63;29373;228;63009;-69
2022/01/25 02:09:26;;;;;;;0.68;0.68;;;;;;;-0.60;85.79;98342.31;29373;204;63005;-69
2022/01/25 02:09:57;;;;;;;0.60;0.60;;;;;;;-0.61;85.94;98338.00;29373;197;63009;-69
2022/01/25 02:10:29;;;;;;;1.00;1.00;;;;;;;-0.62;85.73;98344.34;29373;228;63005;-68
2022/01/25 02:11:05;;;;;;;1.98;1.98;;;;;;;-0.63;85.94;98338.19;29373;230;63009;-69
2022/01/25 02:11:38;;;;;;;0.65;0.65;;;;;;;-0.63;85.80;98337.34;29373;241;63005;-68
2022/01/25 02:12:09;;;;;;;1.12;1.12;;;;;;;-0.64;86.21;98346.34;29373;239;63009;-69
2022/01/25 02:12:45;;;;;;;0.70;0.70;;;;;;;-0.65;86.36;98345.53;29371;251;64009;-68
2022/01/25 02:13:17;;;;;;;0.70;0.70;;;;;;;-0.66;86.36;98343.88;29373;213;63009;-69
2022/01/25 02:13:48;;;;;;;0.70;0.70;;;;;;;-0.68;86.25;98346.72;29373;204;63010;-69
2022/01/25 02:14:20;;;;;;;0.70;0.70;;;;;;;-0.65;86.39;98347.37;29373;226;63009;-68
2022/01/25 02:14:52;;;;;;;0.60;0.60;;;;;;;-0.65;86.14;98339.37;29373;223;63004;-68
2022/01/25 02:15:26;;;;;;;0.70;0.70;;;;;;;-0.64;86.30;98346.34;29371;221;64013;-68
2022/01/25 02:16:02;;;;;;;0.70;0.70;;;;;;;-0.63;86.36;98342.69;29373;241;63005;-67
2022/01/25 02:17:01;;;;;;;0.70;0.70;;;;;;;-0.63;86.26;98342.69;29371;239;64014;-68
2022/01/25 02:17:58;;;;;;;0.70;0.70;;;;;;;-0.64;86.25;98341.84;29373;240;63005;-69
2022/01/25 02:22:50;;;;;;;0.60;0.60;;;;;;;-0.65;85.99;98345.53;29373;231;63004;-68
2022/01/25 02:23:24;;;;;;;0.70;0.70;;;;;;;-0.66;86.13;98354.53;29373;198;63009;-67
2022/01/25 02:23:55;;;;;;;0.70;0.70;;;;;;;-0.67;86.11;98345.72;29373;209;63005;-67
2022/01/25 02:24:29;;;;;;;0.70;0.70;;;;;;;-0.67;86.32;98348.38;29373;219;63009;-68
2022/01/25 02:25:03;;;;;;;0.60;0.60;;;;;;;-0.68;86.35;98348.56;29371;236;64009;-68
2022/01/25 02:25:35;;;;;;;0.70;0.70;;;;;;;-0.68;86.36;98351.22;29373;227;63009;-68
2022/01/25 02:26:07;;;;;;;0.70;0.70;;;;;;;-0.70;86.29;98346.13;29373;233;63005;-68
2022/01/25 02:26:39;;;;;;;0.70;0.70;;;;;;;-0.71;86.29;98344.47;29371;293;64013;-67
2022/01/25 02:27:11;;;;;;;0.70;0.70;;;;;;;-0.72;86.48;98349.97;29371;209;64009;-69
2022/01/25 02:27:42;;;;;;;10.57;9.73;;;;;;;-0.73;86.42;98343.00;29367;211;65004;-68
2022/01/25 02:28:14;;;;;;;0.70;0.70;;;;;;;-0.75;86.29;98345.84;29373;204;63004;-71
2022/01/25 02:28:46;;;;;;;0.70;0.70;;;;;;;-0.77;86.63;98337.19;29373;202;63016;-68
2022/01/25 02:29:17;;;;;;;0.70;0.70;;;;;;;-0.77;86.38;98342.53;29373;263;63004;-69
2022/01/25 02:29:51;;;;;;;0.70;0.70;;;;;;;-0.76;86.45;98348.69;29373;206;63008;-67
2022/01/25 02:30:22;;;;;;;0.70;0.70;;;;;;;-0.76;86.44;98338.03;29373;203;63004;-68
2022/01/25 02:30:55;;;;;;;0.70;0.70;;;;;;;-0.76;86.41;98344.19;29373;222;63009;-69
2022/01/25 02:31:26;;;;;;;0.70;0.70;;;;;;;-0.76;86.69;98344.19;29373;242;63005;-67
2022/01/25 02:31:58;;;;;;;0.70;0.70;;;;;;;-0.76;86.34;98349.53;29371;203;64013;-67
2022/01/25 02:32:29;;;;;;;0.70;0.70;;;;;;;-0.74;86.28;98350.16;29373;231;63016;-68
2022/01/25 02:33:00;;;;;;;6.93;6.53;;;;;;;-0.74;86.30;98350.16;29371;220;64013;-69
2022/01/25 02:33:32;;;;;;;0.60;0.60;;;;;;;-0.74;86.19;98344.84;29373;229;63005;-68
2022/01/25 02:34:03;;;;;;;1.12;1.12;;;;;;;-0.74;86.39;98352.81;29373;250;63009;-68
2022/01/25 02:34:34;;;;;;;0.70;0.70;;;;;;;-0.76;86.19;98344.19;29373;225;63004;-68
2022/01/25 02:35:07;;;;;;;0.70;0.70;;;;;;;-0.78;86.42;98340.88;29373;225;63009;-68
2022/01/25 02:35:41;;;;;;;0.65;0.65;;;;;;;-0.80;86.36;98345.56;29373;204;63004;-68
2022/01/25 02:36:16;;;;;;;0.70;0.70;;;;;;;-0.82;86.65;98344.91;29373;265;63009;-68
2022/01/25 02:36:56;;;;;;;0.70;0.70;;;;;;;-0.85;86.76;98344.47;29371;229;64008;-66
2022/01/25 02:37:27;;;;;;;0.70;0.70;;;;;;;-0.86;86.77;98343.62;29373;197;63019;-67
2022/01/25 02:37:58;;;;;;;0.70;0.70;;;;;;;-0.87;86.61;98351.81;29373;245;63005;-68
2022/01/25 02:38:31;;;;;;;0.60;0.60;;;;;;;-0.89;86.64;98346.66;29373;219;63009;-68
2022/01/25 02:39:03;;;;;;;0.70;0.70;;;;;;;-0.90;86.68;98347.69;29373;225;63005;-67
2022/01/25 02:39:37;;;;;;;0.73;0.73;;;;;;;-0.91;87.00;98350.53;29373;224;63019;-68
2022/01/25 02:40:10;;;;;;;0.70;0.70;;;;;;;-0.92;86.78;98356.88;29373;208;63005;-68
2022/01/25 02:40:42;;;;;;;0.70;0.70;;;;;;;-0.93;87.23;98355.22;29373;262;63009;-68
2022/01/25 02:41:13;;;;;;;0.70;0.70;;;;;;;-0.94;87.23;98354.37;29373;205;63005;-69
2022/01/25 02:41:44;;;;;;;0.70;0.70;;;;;;;-0.95;87.32;98355.41;29373;248;63009;-68
2022/01/25 02:42:17;;;;;;;4.50;4.35;;;;;;;-0.96;87.32;98353.75;29371;221;64009;-69
2022/01/25 02:42:50;;;;;;;0.65;0.65;;;;;;;-0.97;87.54;98354.75;29373;217;63009;-69
2022/01/25 02:43:22;;;;;;;0.60;0.60;;;;;;;-0.97;87.45;98352.09;29373;208;63004;-69
2022/01/25 02:43:53;;;;;;;0.70;0.70;;;;;;;-0.97;87.40;98345.94;29373;212;63009;-68
2022/01/25 02:44:27;;;;;;;0.68;0.68;;;;;;;-0.98;87.40;98346.94;29373;221;63004;-70
2022/01/25 02:44:58;;;;;;;0.70;0.70;;;;;;;-0.99;87.47;98348.78;29373;258;63009;-68
2022/01/25 02:45:35;;;;;;;0.60;0.60;;;;;;;-1.00;87.36;98349.78;29373;259;63005;-69
2022/01/25 02:48:54;;;;;;;3.45;3.35;;;;;;;-1.05;87.38;98344.22;29372;211;63005;-68
2022/01/25 02:49:25;;;;;;;0.70;0.70;;;;;;;-1.06;87.97;98347.87;29373;202;63009;-68
2022/01/25 02:49:57;;;;;;;0.73;0.73;;;;;;;-1.07;87.71;98351.56;29373;218;63004;-68
2022/01/25 02:50:29;;;;;;;5.28;4.93;;;;;;;-1.09;87.74;98348.25;29373;247;63009;-69
2022/01/25 02:51:02;;;;;;;0.70;0.70;;;;;;;-1.10;87.74;98344.75;29373;230;63004;-70
2022/01/25 02:51:37;;;;;;;0.70;0.70;;;;;;;-1.11;88.17;98344.94;29371;229;64013;-70
2022/01/25 02:52:09;;;;;;;0.70;0.70;;;;;;;-1.11;88.03;98344.94;29373;237;63004;-68
2022/01/25 02:52:44;;;;;;;0.70;0.70;;;;;;;-1.12;87.99;98333.47;29371;210;64014;-68
2022/01/25 02:53:15;;;;;;;0.70;0.70;;;;;;;-1.12;87.79;98332.63;29373;214;63005;-68
2022/01/25 02:53:47;;;;;;;0.70;0.70;;;;;;;-1.12;87.80;98343.28;29373;203;63009;-68
2022/01/25 02:54:18;;;;;;;0.70;0.70;;;;;;;-1.11;88.09;98344.94;29371;210;64009;-68
2022/01/25 02:54:50;;;;;;;0.70;0.70;;;;;;;-1.13;87.94;98341.63;29373;257;63009;-67
2022/01/25 02:55:23;;;;;;;0.90;0.90;;;;;;;-1.14;87.85;98343.47;29373;232;63005;-69
2022/01/25 02:55:55;;;;;;;0.70;0.70;;;;;;;-1.11;88.21;98344.94;29373;230;63014;-69
2022/01/25 02:56:28;;;;;;;0.70;0.70;;;;;;;-1.12;87.86;98338.78;29373;260;63005;-71
2022/01/25 02:56:59;;;;;;;1.10;1.10;;;;;;;-1.12;88.09;98338.78;29371;251;64013;-69
2022/01/25 02:57:30;;;;;;;0.62;0.62;;;;;;;-1.13;87.86;98338.97;29371;238;64009;-69
2022/01/25 02:58:02;;;;;;;3.25;3.15;;;;;;;-1.13;88.13;98331.81;29373;217;63009;-68
2022/01/25 02:58:33;;;;;;;0.70;0.70;;;;;;;-1.13;88.02;98336.31;29373;246;63004;-70
2022/01/25 02:59:05;;;;;;;0.68;0.68;;;;;;;-1.16;88.33;98331.34;29373;250;63009;-68
2022/01/25 02:59:36;;;;;;;0.70;0.70;;;;;;;-1.16;88.33;98331.34;29373;213;63004;-68
2022/01/25 03:00:09;;;;;;;0.70;0.70;;;;;;;-1.17;88.43;98335.84;29373;216;63025;-68
2022/01/25 03:00:40;;;;;;;1.15;1.15;;;;;;;-1.17;88.25;98335.00;29371;251;64009;-69
2022/01/25 03:01:12;;;;;;;0.70;0.70;;;;;;;-1.17;88.48;98335.00;29373;226;63027;-57
2022/01/25 03:01:45;;;;;;;0.62;0.62;;;;;;;-1.17;88.14;98337.69;29373;226;63005;-69
2022/01/25 03:02:18;;;;;;;0.70;0.70;;;;;;;-1.16;88.47;98331.34;29373;242;63009;-68
2022/01/25 03:02:49;;;;;;;0.60;0.60;;;;;;;-1.16;88.37;98331.34;29373;266;63005;-68
2022/01/25 03:03:20;;;;;;;0.68;0.68;;;;;;;-1.17;88.26;98330.50;29373;270;63009;-68
2022/01/25 03:03:51;;;;;;;0.70;0.70;;;;;;;-1.17;88.13;98335.00;29373;213;63005;-68
2022/01/25 03:04:23;;;;;;;0.90;0.90;;;;;;;-1.17;88.31;98332.34;29373;232;63009;-69
2022/01/25 03:04:58;;;;;;;0.70;0.70;;;;;;;-1.16;88.24;98336.66;29373;223;63004;-68
2022/01/25 03:05:30;;;;;;;0.70;0.70;;;;;;;-1.17;88.03;98333.19;29373;234;63009;-69
2022/01/25 03:06:02;;;;;;;0.68;0.68;;;;;;;-1.17;88.00;98330.50;29371;239;64009;-68
2022/01/25 03:06:34;;;;;;;0.70;0.70;;;;;;;-1.17;88.25;98335.84;29373;250;63009;-68
2022/01/25 03:07:09;;;;;;;0.70;0.70;;;;;;;-1.16;88.09;98331.34;29373;250;63004;-68
2022/01/25 03:07:43;;;;;;;0.70;0.70;;;;;;;-1.16;88.23;98334.00;29373;200;63009;-68
2022/01/25 03:08:15;;;;;;;0.82;0.82;;;;;;;-1.17;87.91;98330.50;29373;211;63005;-58
2022/01/25 03:08:48;;;;;;;0.80;0.80;;;;;;;-1.17;88.27;98329.69;29373;251;63009;-70
2022/01/25 03:09:19;;;;;;;0.70;0.70;;;;;;;-1.17;87.96;98324.34;29373;222;63005;-68
2022/01/25 03:09:56;;;;;;;0.70;0.70;;;;;;;-1.18;88.14;98333.34;29371;218;64013;-68
2022/01/25 03:10:37;;;;;;;2.35;2.25;;;;;;;-1.19;88.33;98329.88;29371;213;64009;-68
2022/01/25 03:11:09;;;;;;;1.67;1.65;;;;;;;-1.19;88.44;98326.38;29373;262;63025;-69
2022/01/25 03:11:42;;;;;;;0.68;0.68;;;;;;;-1.21;87.97;98317.75;29373;221;63004;-69
2022/01/25 03:12:17;;;;;;;0.70;0.70;;;;;;;-1.19;88.35;98321.03;29373;235;63009;-69
2022/01/25 03:12:54;;;;;;;0.70;0.70;;;;;;;-1.22;88.37;98322.25;29373;256;63004;-68
2022/01/25 03:13:29;;;;;;;0.70;0.70;;;;;;;-1.22;88.11;98319.56;29371;231;64013;-70
2022/01/25 03:14:08;;;;;;;0.77;0.77;;;;;;;-1.21;88.11;98323.06;29373;229;63004;-57
2022/01/25 03:14:58;;;;;;;0.70;0.70;;;;;;;-1.21;88.40;98315.06;29373;220;63008;-68
2022/01/25 03:15:52;;;;;;;0.70;0.70;;;;;;;-1.21;88.17;98315.06;29371;209;64009;-69
2022/01/25 03:17:28;;;;;;;1.35;1.35;;;;;;;-1.25;87.89;98313.78;29395;218;63005;-70
2022/01/25 03:18:07;;;;;;;0.73;0.73;;;;;;;-1.24;88.02;98310.94;29373;242;63009;-68
2022/01/25 03:18:43;;;;;;;0.70;0.70;;;;;;;-1.24;88.22;98313.59;29371;219;64009;-69
2022/01/25 03:22:43;;;;;;;0.70;0.70;;;;;;;-1.21;87.92;98315.06;29373;203;63004;-68
2022/01/25 03:23:20;;;;;;;0.90;0.90;;;;;;;-1.19;87.69;98315.72;29373;207;63009;-68
2022/01/25 03:23:52;;;;;;;0.70;0.70;;;;;;;-1.18;87.65;98314.72;29393;211;64009;-68
2022/01/25 03:24:24;;;;;;;0.70;0.70;;;;;;;-1.17;87.82;98316.37;29395;199;63009;-69
2022/01/25 03:24:55;;;;;;;0.70;0.70;;;;;;;-1.18;87.39;98314.72;29371;220;64009;-67
2022/01/25 03:25:27;;;;;;;0.70;0.70;;;;;;;-1.17;87.71;98319.03;29373;233;63009;-64
2022/01/25 03:25:58;;;;;;;0.60;0.60;;;;;;;-1.17;87.50;98308.37;29373;222;63006;-70
2022/01/25 03:26:33;;;;;;;0.70;0.70;;;;;;;-1.18;87.65;98317.37;29373;212;63009;-68
2022/01/25 03:27:05;;;;;;;0.70;0.70;;;;;;;-1.18;87.46;98309.37;29373;283;63004;-67
2022/01/25 03:27:37;;;;;;;0.70;0.70;;;;;;;-1.16;87.60;98315.34;29373;219;63009;-70
2022/01/25 03:28:09;;;;;;;0.70;0.70;;;;;;;-1.18;87.38;98312.88;29373;202;63004;-69
2022/01/25 03:28:41;;;;;;;0.70;0.70;;;;;;;-1.18;87.68;98314.72;29373;197;63009;-67
2022/01/25 03:29:12;;;;;;;0.70;0.70;;;;;;;-1.18;87.44;98317.37;29373;212;63004;-67
2022/01/25 03:29:44;;;;;;;0.70;0.70;;;;;;;-1.19;87.67;98318.38;29371;270;64013;-67
2022/01/25 03:30:16;;;;;;;0.73;0.73;;;;;;;-1.19;87.39;98318.38;29373;200;63005;-68
2022/01/25 03:30:47;;;;;;;0.70;0.70;;;;;;;-1.20;87.57;98317.56;29373;216;63009;-68
2022/01/25 03:31:20;;;;;;;0.70;0.70;;;;;;;-1.19;87.37;98315.72;29373;197;63005;-68
2022/01/25 03:31:51;;;;;;;0.70;0.70;;;;;;;-1.18;87.62;98317.37;29373;211;63009;-68
2022/01/25 03:32:22;;;;;;;0.60;0.60;;;;;;;-1.19;87.45;98318.38;29373;258;63005;-68
2022/01/25 03:32:53;;;;;;;3.08;2.97;;;;;;;-1.19;87.47;98318.38;29373;257;63009;-68
2022/01/25 03:33:25;;;;;;;0.65;0.65;;;;;;;-1.19;87.57;98321.03;29373;244;63005;-70
2022/01/25 03:33:56;;;;;;;0.70;0.70;;;;;;;-1.21;87.72;98313.25;29373;198;63009;-70
2022/01/25 03:34:28;;;;;;;0.70;0.70;;;;;;;-1.21;87.49;98315.06;29373;229;63004;-69
2022/01/25 03:34:59;;;;;;;0.70;0.70;;;;;;;-1.22;87.42;98322.25;29371;197;64013;-69
2022/01/25 03:35:30;;;;;;;0.60;0.60;;;;;;;-1.22;87.45;98316.91;29373;226;63004;-68
2022/01/25 03:36:02;;;;;;;0.65;0.65;;;;;;;-1.22;87.58;98321.41;29373;231;63008;-68
2022/01/25 03:36:34;;;;;;;0.70;0.70;;;;;;;-1.23;87.68;98323.25;29373;198;63004;-69
2022/01/25 03:37:05;;;;;;;0.73;0.73;;;;;;;-1.24;87.72;98326.09;29373;236;63008;-68
2022/01/25 03:37:36;;;;;;;0.70;0.70;;;;;;;-1.24;87.77;98323.44;29372;225;63004;-69
2022/01/25 03:38:08;;;;;;;0.65;0.65;;;;;;;-1.25;88.21;98321.78;29373;240;63009;-69
2022/01/25 03:38:41;;;;;;;0.70;0.70;;;;;;;-1.25;87.95;98321.78;29373;245;63005;-69
2022/01/25 03:39:13;;;;;;;0.60;0.60;;;;;;;-1.26;88.22;98326.28;29373;279;63009;-69
2022/01/25 03:39:44;;;;;;;0.70;0.70;;;;;;;-1.27;87.97;98323.78;29373;213;63005;-70
2022/01/25 03:40:16;;;;;;;0.70;0.70;;;;;;;-1.29;88.30;98323.16;29371;238;64013;-66
2022/01/25 03:40:48;;;;;;;0.90;0.90;;;;;;;-1.31;88.01;98331.31;29373;212;63005;-70
2022/01/25 03:41:20;;;;;;;0.60;0.60;;;;;;;-1.31;88.34;98323.31;29373;203;63009;-69
2022/01/25 03:41:51;;;;;;;0.70;0.70;;;;;;;-1.31;88.08;98327.81;29373;242;63004;-69
2022/01/25 03:42:23;;;;;;;0.70;0.70;;;;;;;-1.33;88.18;98316.53;29373;230;63009;-69
2022/01/25 03:42:55;;;;;;;0.70;0.70;;;;;;;-1.35;88.19;98320.19;29371;235;64023;-69
2022/01/25 03:43:27;;;;;;;0.70;0.70;;;;;;;-1.35;88.28;98322.88;29373;202;63009;-69
2022/01/25 03:43:58;;;;;;;1.65;1.65;;;;;;;-1.37;88.26;98324.87;29373;245;63004;-69
2022/01/25 03:44:29;;;;;;;0.70;0.70;;;;;;;-1.38;88.49;98323.22;29373;202;63009;-69
2022/01/25 03:45:00;;;;;;;0.70;0.70;;;;;;;-1.39;88.15;98326.09;29373;217;63005;-68